sensor_id;sensor_type;location;lat;lon;timestamp;P1;durP1;ratioP1;P2;durP2;ratioP2
55134;SDS011;41031;44.750;11.308;2022-08-07T00:01:33;2.53;;;2.30;;
55134;SDS011;41031;44.750;11.308;2022-08-07T00:04:21;2.73;;;2.53;;
55134;SDS011;41031;44.750;11.308;2022-08-07T00:06:51;5.97;;;2.47;;
55134;SDS011;41031;44.750;11.308;2022-08-07T00:09:20;4.67;;;2.27;;
55134;SDS011;41031;44.750;11.308;2022-08-07T00:12:01;2.93;;;2.20;;
55134;SDS011;41031;44.750;11.308;2022-08-07T00:14:28;3.90;;;2.23;;
55134;SDS011;41031;44.750;11.308;2022-08-07T00:17:01;2.00;;;1.77;;
55134;SDS011;41031;44.750;11.308;2022-08-07T00:19:32;3.90;;;1.90;;
55134;SDS011;41031;44.750;11.308;2022-08-07T00:22:20;2.00;;;1.90;;
55134;SDS011;41031;44.750;11.308;2022-08-07T00:25:03;2.63;;;2.00;;
55134;SDS011;41031;44.750;11.308;2022-08-07T00:27:33;2.70;;;2.50;;
55134;SDS011;41031;44.750;11.308;2022-08-07T00:30:22;2.10;;;1.90;;
55134;SDS011;41031;44.750;11.308;2022-08-07T00:32:56;5.40;;;2.57;;
55134;SDS011;41031;44.750;11.308;2022-08-07T00:35:32;2.70;;;2.50;;
55134;SDS011;41031;44.750;11.308;2022-08-07T00:38:02;2.90;;;2.50;;
55134;SDS011;41031;44.750;11.308;2022-08-07T00:40:30;2.30;;;2.20;;
55134;SDS011;41031;44.750;11.308;2022-08-07T00:43:06;3.47;;;2.43;;
55134;SDS011;41031;44.750;11.308;2022-08-07T00:45:37;3.10;;;2.20;;
55134;SDS011;41031;44.750;11.308;2022-08-07T00:48:06;2.33;;;2.20;;
55134;SDS011;41031;44.750;11.308;2022-08-07T00:50:37;4.40;;;2.17;;
55134;SDS011;41031;44.750;11.308;2022-08-07T00:53:17;2.30;;;2.10;;
55134;SDS011;41031;44.750;11.308;2022-08-07T00:55:47;3.10;;;2.27;;
55134;SDS011;41031;44.750;11.308;2022-08-07T00:58:29;2.57;;;2.37;;
55134;SDS011;41031;44.750;11.308;2022-08-07T01:01:01;4.60;;;2.50;;
55134;SDS011;41031;44.750;11.308;2022-08-07T01:03:28;2.93;;;2.73;;
55134;SDS011;41031;44.750;11.308;2022-08-07T01:06:18;2.77;;;2.20;;
55134;SDS011;41031;44.750;11.308;2022-08-07T01:08:52;2.43;;;2.30;;
55134;SDS011;41031;44.750;11.308;2022-08-07T01:11:26;4.10;;;2.30;;
55134;SDS011;41031;44.750;11.308;2022-08-07T01:14:15;2.00;;;1.90;;
55134;SDS011;41031;44.750;11.308;2022-08-07T01:16:54;2.30;;;2.10;;
55134;SDS011;41031;44.750;11.308;2022-08-07T01:19:25;2.60;;;1.80;;
55134;SDS011;41031;44.750;11.308;2022-08-07T01:21:58;2.37;;;1.73;;
55134;SDS011;41031;44.750;11.308;2022-08-07T01:24:37;2.50;;;1.63;;
55134;SDS011;41031;44.750;11.308;2022-08-07T01:27:13;1.67;;;1.57;;
55134;SDS011;41031;44.750;11.308;2022-08-07T01:29:46;1.60;;;1.50;;
55134;SDS011;41031;44.750;11.308;2022-08-07T01:32:17;1.77;;;1.60;;
55134;SDS011;41031;44.750;11.308;2022-08-07T01:34:52;3.43;;;1.30;;
55134;SDS011;41031;44.750;11.308;2022-08-07T01:37:29;1.50;;;1.40;;
55134;SDS011;41031;44.750;11.308;2022-08-07T01:40:04;1.97;;;1.30;;
55134;SDS011;41031;44.750;11.308;2022-08-07T01:42:49;2.33;;;1.70;;
55134;SDS011;41031;44.750;11.308;2022-08-07T01:45:28;2.70;;;1.60;;
55134;SDS011;41031;44.750;11.308;2022-08-07T01:48:11;4.63;;;1.80;;
55134;SDS011;41031;44.750;11.308;2022-08-07T01:50:49;2.70;;;1.27;;
55134;SDS011;41031;44.750;11.308;2022-08-07T01:53:54;1.60;;;1.50;;
55134;SDS011;41031;44.750;11.308;2022-08-07T01:59:21;1.83;;;1.63;;
55134;SDS011;41031;44.750;11.308;2022-08-07T02:02:41;3.53;;;1.47;;
55134;SDS011;41031;44.750;11.308;2022-08-07T02:05:32;2.57;;;1.33;;
55134;SDS011;41031;44.750;11.308;2022-08-07T02:08:24;1.50;;;1.40;;
55134;SDS011;41031;44.750;11.308;2022-08-07T02:10:53;1.83;;;1.23;;
55134;SDS011;41031;44.750;11.308;2022-08-07T02:13:30;1.70;;;1.60;;
55134;SDS011;41031;44.750;11.308;2022-08-07T02:16:21;1.53;;;1.43;;
55134;SDS011;41031;44.750;11.308;2022-08-07T02:18:54;2.27;;;1.80;;
55134;SDS011;41031;44.750;11.308;2022-08-07T02:21:23;2.23;;;1.93;;
55134;SDS011;41031;44.750;11.308;2022-08-07T02:24:11;1.50;;;1.40;;
55134;SDS011;41031;44.750;11.308;2022-08-07T02:26:43;3.10;;;1.70;;
55134;SDS011;41031;44.750;11.308;2022-08-07T02:29:14;2.30;;;2.10;;
55134;SDS011;41031;44.750;11.308;2022-08-07T02:31:47;2.50;;;1.93;;
55134;SDS011;41031;44.750;11.308;2022-08-07T02:34:16;2.23;;;1.73;;
55134;SDS011;41031;44.750;11.308;2022-08-07T02:36:50;4.33;;;1.83;;
55134;SDS011;41031;44.750;11.308;2022-08-07T02:39:18;2.00;;;1.83;;
55134;SDS011;41031;44.750;11.308;2022-08-07T02:42:11;1.87;;;1.70;;
55134;SDS011;41031;44.750;11.308;2022-08-07T02:44:45;1.93;;;1.60;;
55134;SDS011;41031;44.750;11.308;2022-08-07T02:47:20;1.97;;;1.70;;
55134;SDS011;41031;44.750;11.308;2022-08-07T02:50:12;3.43;;;1.90;;
55134;SDS011;41031;44.750;11.308;2022-08-07T02:55:39;2.03;;;1.93;;
55134;SDS011;41031;44.750;11.308;2022-08-07T02:58:32;2.17;;;2.03;;
55134;SDS011;41031;44.750;11.308;2022-08-07T03:01:05;2.13;;;1.93;;
55134;SDS011;41031;44.750;11.308;2022-08-07T03:03:45;3.83;;;2.30;;
55134;SDS011;41031;44.750;11.308;2022-08-07T03:06:19;2.80;;;2.23;;
55134;SDS011;41031;44.750;11.308;2022-08-07T03:09:00;2.13;;;1.93;;
55134;SDS011;41031;44.750;11.308;2022-08-07T03:11:37;5.30;;;2.20;;
55134;SDS011;41031;44.750;11.308;2022-08-07T03:14:27;2.00;;;1.70;;
55134;SDS011;41031;44.750;11.308;2022-08-07T03:16:56;2.70;;;2.50;;
55134;SDS011;41031;44.750;11.308;2022-08-07T03:19:34;3.60;;;2.43;;
55134;SDS011;41031;44.750;11.308;2022-08-07T03:22:07;2.90;;;2.70;;
55134;SDS011;41031;44.750;11.308;2022-08-07T03:24:48;3.80;;;2.70;;
55134;SDS011;41031;44.750;11.308;2022-08-07T03:27:41;4.07;;;2.60;;
55134;SDS011;41031;44.750;11.308;2022-08-07T03:30:34;2.27;;;2.10;;
55134;SDS011;41031;44.750;11.308;2022-08-07T03:33:03;2.60;;;2.40;;
55134;SDS011;41031;44.750;11.308;2022-08-07T03:35:34;2.67;;;2.47;;
55134;SDS011;41031;44.750;11.308;2022-08-07T03:38:16;2.80;;;2.13;;
55134;SDS011;41031;44.750;11.308;2022-08-07T03:40:48;8.40;;;2.53;;
55134;SDS011;41031;44.750;11.308;2022-08-07T03:43:25;3.87;;;2.57;;
55134;SDS011;41031;44.750;11.308;2022-08-07T03:46:00;3.43;;;2.50;;
55134;SDS011;41031;44.750;11.308;2022-08-07T03:48:46;2.63;;;2.43;;
55134;SDS011;41031;44.750;11.308;2022-08-07T03:51:34;2.67;;;2.47;;
55134;SDS011;41031;44.750;11.308;2022-08-07T03:54:20;4.20;;;2.57;;
55134;SDS011;41031;44.750;11.308;2022-08-07T03:57:08;3.23;;;2.47;;
55134;SDS011;41031;44.750;11.308;2022-08-07T03:59:59;3.63;;;2.53;;
55134;SDS011;41031;44.750;11.308;2022-08-07T04:02:40;3.10;;;2.67;;
55134;SDS011;41031;44.750;11.308;2022-08-07T04:05:37;2.77;;;2.57;;
55134;SDS011;41031;44.750;11.308;2022-08-07T04:08:16;5.70;;;2.63;;
55134;SDS011;41031;44.750;11.308;2022-08-07T04:10:48;3.10;;;2.90;;
55134;SDS011;41031;44.750;11.308;2022-08-07T04:13:40;2.93;;;2.67;;
55134;SDS011;41031;44.750;11.308;2022-08-07T04:16:28;3.70;;;3.03;;
55134;SDS011;41031;44.750;11.308;2022-08-07T04:19:01;3.33;;;3.03;;
55134;SDS011;41031;44.750;11.308;2022-08-07T04:21:41;4.10;;;3.43;;
55134;SDS011;41031;44.750;11.308;2022-08-07T04:24:25;3.50;;;2.87;;
55134;SDS011;41031;44.750;11.308;2022-08-07T04:27:03;3.20;;;3.00;;
55134;SDS011;41031;44.750;11.308;2022-08-07T04:29:42;3.07;;;2.87;;
55134;SDS011;41031;44.750;11.308;2022-08-07T04:32:35;4.60;;;3.13;;
55134;SDS011;41031;44.750;11.308;2022-08-07T04:35:04;4.40;;;4.00;;
55134;SDS011;41031;44.750;11.308;2022-08-07T04:37:38;6.70;;;3.60;;
55134;SDS011;41031;44.750;11.308;2022-08-07T04:40:25;3.93;;;3.53;;
55134;SDS011;41031;44.750;11.308;2022-08-07T04:42:57;3.60;;;3.23;;
55134;SDS011;41031;44.750;11.308;2022-08-07T04:45:42;3.50;;;3.20;;
55134;SDS011;41031;44.750;11.308;2022-08-07T04:48:31;5.17;;;2.87;;
55134;SDS011;41031;44.750;11.308;2022-08-07T04:53:57;3.10;;;2.90;;
55134;SDS011;41031;44.750;11.308;2022-08-07T05:00:13;3.07;;;2.80;;
55134;SDS011;41031;44.750;11.308;2022-08-07T05:09:08;5.10;;;2.57;;
55134;SDS011;41031;44.750;11.308;2022-08-07T05:12:04;3.50;;;3.20;;
55134;SDS011;41031;44.750;11.308;2022-08-07T05:14:45;3.17;;;2.87;;
55134;SDS011;41031;44.750;11.308;2022-08-07T05:17:22;4.83;;;3.00;;
55134;SDS011;41031;44.750;11.308;2022-08-07T05:20:15;3.37;;;2.67;;
55134;SDS011;41031;44.750;11.308;2022-08-07T05:22:48;4.47;;;3.03;;
55134;SDS011;41031;44.750;11.308;2022-08-07T05:25:21;3.40;;;3.10;;
55134;SDS011;41031;44.750;11.308;2022-08-07T05:28:03;3.10;;;2.90;;
55134;SDS011;41031;44.750;11.308;2022-08-07T05:30:49;2.90;;;2.70;;
55134;SDS011;41031;44.750;11.308;2022-08-07T05:33:18;5.13;;;2.80;;
55134;SDS011;41031;44.750;11.308;2022-08-07T05:35:48;4.27;;;3.00;;
55134;SDS011;41031;44.750;11.308;2022-08-07T05:38:18;4.60;;;3.17;;
55134;SDS011;41031;44.750;11.308;2022-08-07T05:41:07;3.83;;;2.80;;
55134;SDS011;41031;44.750;11.308;2022-08-07T05:43:45;3.47;;;3.20;;
55134;SDS011;41031;44.750;11.308;2022-08-07T05:46:35;4.10;;;3.03;;
55134;SDS011;41031;44.750;11.308;2022-08-07T05:49:07;2.80;;;2.60;;
55134;SDS011;41031;44.750;11.308;2022-08-07T05:51:41;3.10;;;2.80;;
55134;SDS011;41031;44.750;11.308;2022-08-07T05:54:17;3.47;;;2.97;;
55134;SDS011;41031;44.750;11.308;2022-08-07T05:57:07;3.13;;;2.93;;
55134;SDS011;41031;44.750;11.308;2022-08-07T05:59:36;3.20;;;3.00;;
55134;SDS011;41031;44.750;11.308;2022-08-07T06:02:27;3.57;;;3.20;;
55134;SDS011;41031;44.750;11.308;2022-08-07T06:05:02;5.63;;;3.37;;
55134;SDS011;41031;44.750;11.308;2022-08-07T06:07:44;3.40;;;3.10;;
55134;SDS011;41031;44.750;11.308;2022-08-07T06:10:35;6.47;;;4.50;;
55134;SDS011;41031;44.750;11.308;2022-08-07T06:13:05;3.20;;;3.00;;
55134;SDS011;41031;44.750;11.308;2022-08-07T06:15:41;4.07;;;3.67;;
55134;SDS011;41031;44.750;11.308;2022-08-07T06:18:17;4.13;;;3.73;;
55134;SDS011;41031;44.750;11.308;2022-08-07T06:20:44;3.80;;;2.90;;
55134;SDS011;41031;44.750;11.308;2022-08-07T06:23:35;10.40;;;5.30;;
55134;SDS011;41031;44.750;11.308;2022-08-07T06:26:24;4.07;;;3.67;;
55134;SDS011;41031;44.750;11.308;2022-08-07T06:28:55;10.33;;;5.80;;
55134;SDS011;41031;44.750;11.308;2022-08-07T06:31:28;8.60;;;5.80;;
55134;SDS011;41031;44.750;11.308;2022-08-07T06:34:16;12.33;;;6.37;;
55134;SDS011;41031;44.750;11.308;2022-08-07T06:36:47;12.10;;;7.30;;
55134;SDS011;41031;44.750;11.308;2022-08-07T06:39:23;7.17;;;4.63;;
55134;SDS011;41031;44.750;11.308;2022-08-07T06:42:13;9.93;;;6.73;;
55134;SDS011;41031;44.750;11.308;2022-08-07T06:45:08;5.43;;;4.93;;
55134;SDS011;41031;44.750;11.308;2022-08-07T06:47:50;5.67;;;4.20;;
55134;SDS011;41031;44.750;11.308;2022-08-07T06:50:31;5.40;;;4.33;;
55134;SDS011;41031;44.750;11.308;2022-08-07T06:53:03;4.90;;;4.00;;
55134;SDS011;41031;44.750;11.308;2022-08-07T06:55:54;7.37;;;3.80;;
55134;SDS011;41031;44.750;11.308;2022-08-07T06:58:28;3.37;;;3.17;;
55134;SDS011;41031;44.750;11.308;2022-08-07T07:01:07;4.07;;;3.20;;
55134;SDS011;41031;44.750;11.308;2022-08-07T07:03:40;3.17;;;2.87;;
55134;SDS011;41031;44.750;11.308;2022-08-07T07:06:22;3.07;;;2.87;;
55134;SDS011;41031;44.750;11.308;2022-08-07T07:08:53;3.80;;;2.87;;
55134;SDS011;41031;44.750;11.308;2022-08-07T07:11:22;3.10;;;2.90;;
55134;SDS011;41031;44.750;11.308;2022-08-07T07:14:10;3.90;;;2.60;;
55134;SDS011;41031;44.750;11.308;2022-08-07T07:16:40;3.47;;;2.80;;
55134;SDS011;41031;44.750;11.308;2022-08-07T07:19:18;3.93;;;2.97;;
55134;SDS011;41031;44.750;11.308;2022-08-07T07:22:09;3.13;;;2.83;;
55134;SDS011;41031;44.750;11.308;2022-08-07T07:24:57;3.23;;;2.93;;
55134;SDS011;41031;44.750;11.308;2022-08-07T07:28:06;3.50;;;2.67;;
55134;SDS011;41031;44.750;11.308;2022-08-07T07:31:04;4.33;;;2.63;;
55134;SDS011;41031;44.750;11.308;2022-08-07T07:33:36;4.23;;;3.07;;
55134;SDS011;41031;44.750;11.308;2022-08-07T07:36:04;4.73;;;3.67;;
55134;SDS011;41031;44.750;11.308;2022-08-07T07:38:42;3.17;;;2.97;;
55134;SDS011;41031;44.750;11.308;2022-08-07T07:41:12;5.97;;;3.57;;
55134;SDS011;41031;44.750;11.308;2022-08-07T07:43:44;5.33;;;3.97;;
55134;SDS011;41031;44.750;11.308;2022-08-07T07:46:34;3.83;;;3.37;;
55134;SDS011;41031;44.750;11.308;2022-08-07T07:49:23;6.23;;;3.73;;
55134;SDS011;41031;44.750;11.308;2022-08-07T07:52:13;6.40;;;3.60;;
55134;SDS011;41031;44.750;11.308;2022-08-07T07:54:42;12.63;;;4.63;;
55134;SDS011;41031;44.750;11.308;2022-08-07T07:57:17;3.50;;;3.00;;
55134;SDS011;41031;44.750;11.308;2022-08-07T08:00:07;4.27;;;3.87;;
55134;SDS011;41031;44.750;11.308;2022-08-07T08:02:39;3.67;;;3.37;;
55134;SDS011;41031;44.750;11.308;2022-08-07T08:05:29;6.00;;;3.70;;
55134;SDS011;41031;44.750;11.308;2022-08-07T08:08:09;3.47;;;3.13;;
55134;SDS011;41031;44.750;11.308;2022-08-07T08:10:58;3.17;;;2.87;;
55134;SDS011;41031;44.750;11.308;2022-08-07T08:13:26;3.30;;;2.67;;
55134;SDS011;41031;44.750;11.308;2022-08-07T08:16:07;3.87;;;2.80;;
55134;SDS011;41031;44.750;11.308;2022-08-07T08:18:50;2.93;;;2.63;;
55134;SDS011;41031;44.750;11.308;2022-08-07T08:21:20;5.10;;;2.83;;
55134;SDS011;41031;44.750;11.308;2022-08-07T08:24:27;6.33;;;2.97;;
55134;SDS011;41031;44.750;11.308;2022-08-07T08:27:33;3.63;;;2.70;;
55134;SDS011;41031;44.750;11.308;2022-08-07T08:30:06;3.23;;;2.93;;
55134;SDS011;41031;44.750;11.308;2022-08-07T08:32:43;2.27;;;2.03;;
55134;SDS011;41031;44.750;11.308;2022-08-07T08:35:22;3.20;;;2.90;;
55134;SDS011;41031;44.750;11.308;2022-08-07T08:37:58;3.40;;;2.80;;
55134;SDS011;41031;44.750;11.308;2022-08-07T08:40:36;3.23;;;2.90;;
55134;SDS011;41031;44.750;11.308;2022-08-07T08:52:11;4.20;;;3.63;;
55134;SDS011;41031;44.750;11.308;2022-08-07T08:54:52;4.50;;;3.43;;
55134;SDS011;41031;44.750;11.308;2022-08-07T09:00:07;5.97;;;3.57;;
55134;SDS011;41031;44.750;11.308;2022-08-07T09:11:11;5.27;;;3.80;;
55134;SDS011;41031;44.750;11.308;2022-08-07T09:28:04;5.93;;;4.40;;
55134;SDS011;41031;44.750;11.308;2022-08-07T09:30:57;6.90;;;4.90;;
55134;SDS011;41031;44.750;11.308;2022-08-07T09:36:34;7.57;;;5.33;;
55134;SDS011;41031;44.750;11.308;2022-08-07T09:42:39;4.93;;;4.43;;
55134;SDS011;41031;44.750;11.308;2022-08-07T09:53:54;7.00;;;4.50;;
55134;SDS011;41031;44.750;11.308;2022-08-07T10:17:02;6.00;;;5.43;;
55134;SDS011;41031;44.750;11.308;2022-08-07T10:19:54;9.73;;;6.33;;
55134;SDS011;41031;44.750;11.308;2022-08-07T10:25:37;7.60;;;6.30;;
55134;SDS011;41031;44.750;11.308;2022-08-07T10:45:10;4.53;;;3.87;;
55134;SDS011;41031;44.750;11.308;2022-08-07T10:47:50;4.00;;;3.70;;
55134;SDS011;41031;44.750;11.308;2022-08-07T10:50:41;4.20;;;3.83;;
55134;SDS011;41031;44.750;11.308;2022-08-07T11:02:17;4.63;;;4.20;;
55134;SDS011;41031;44.750;11.308;2022-08-07T11:11:13;4.50;;;3.70;;
55134;SDS011;41031;44.750;11.308;2022-08-07T11:20:16;3.33;;;3.03;;
55134;SDS011;41031;44.750;11.308;2022-08-07T11:22:54;3.70;;;3.40;;
55134;SDS011;41031;44.750;11.308;2022-08-07T11:25:29;3.43;;;3.13;;
55134;SDS011;41031;44.750;11.308;2022-08-07T11:36:40;4.63;;;2.90;;
55134;SDS011;41031;44.750;11.308;2022-08-07T11:39:29;3.27;;;2.63;;
55134;SDS011;41031;44.750;11.308;2022-08-07T11:45:23;2.77;;;2.57;;
55134;SDS011;41031;44.750;11.308;2022-08-07T11:57:19;4.17;;;3.40;;
55134;SDS011;41031;44.750;11.308;2022-08-07T12:06:17;4.20;;;3.87;;
55134;SDS011;41031;44.750;11.308;2022-08-07T12:15:20;5.30;;;4.23;;
55134;SDS011;41031;44.750;11.308;2022-08-07T12:18:11;4.60;;;3.97;;
55134;SDS011;41031;44.750;11.308;2022-08-07T12:24:13;5.37;;;4.90;;
55134;SDS011;41031;44.750;11.308;2022-08-07T12:27:12;6.10;;;5.60;;
55134;SDS011;41031;44.750;11.308;2022-08-07T12:32:37;5.57;;;5.10;;
55134;SDS011;41031;44.750;11.308;2022-08-07T12:35:17;5.77;;;5.27;;
55134;SDS011;41031;44.750;11.308;2022-08-07T12:37:49;5.17;;;4.80;;
55134;SDS011;41031;44.750;11.308;2022-08-07T12:40:39;5.80;;;5.30;;
55134;SDS011;41031;44.750;11.308;2022-08-07T12:43:15;5.90;;;4.80;;
55134;SDS011;41031;44.750;11.308;2022-08-07T12:52:11;4.37;;;4.07;;
55134;SDS011;41031;44.750;11.308;2022-08-07T12:55:03;4.30;;;3.97;;
55134;SDS011;41031;44.750;11.308;2022-08-07T12:57:43;3.90;;;3.60;;
55134;SDS011;41031;44.750;11.308;2022-08-07T13:00:30;3.60;;;3.30;;
55134;SDS011;41031;44.750;11.308;2022-08-07T13:03:25;3.57;;;3.27;;
55134;SDS011;41031;44.750;11.308;2022-08-07T13:22:53;2.50;;;2.30;;
55134;SDS011;41031;44.750;11.308;2022-08-07T13:25:29;3.03;;;2.33;;
55134;SDS011;41031;44.750;11.308;2022-08-07T13:28:17;2.90;;;2.70;;
55134;SDS011;41031;44.750;11.308;2022-08-07T13:31:34;2.50;;;2.40;;
55134;SDS011;41031;44.750;11.308;2022-08-07T13:37:07;2.47;;;2.37;;
55134;SDS011;41031;44.750;11.308;2022-08-07T13:40:05;3.83;;;3.23;;
55134;SDS011;41031;44.750;11.308;2022-08-07T13:43:06;2.80;;;2.60;;
55134;SDS011;41031;44.750;11.308;2022-08-07T13:45:42;2.93;;;2.70;;
55134;SDS011;41031;44.750;11.308;2022-08-07T13:48:32;3.17;;;2.87;;
55134;SDS011;41031;44.750;11.308;2022-08-07T13:51:04;3.10;;;2.90;;
55134;SDS011;41031;44.750;11.308;2022-08-07T13:53:55;5.80;;;3.77;;
55134;SDS011;41031;44.750;11.308;2022-08-07T13:56:28;2.30;;;2.20;;
55134;SDS011;41031;44.750;11.308;2022-08-07T13:59:13;2.73;;;2.50;;
55134;SDS011;41031;44.750;11.308;2022-08-07T14:01:50;2.77;;;2.57;;
55134;SDS011;41031;44.750;11.308;2022-08-07T14:04:31;2.20;;;2.10;;
55134;SDS011;41031;44.750;11.308;2022-08-07T14:07:20;2.87;;;1.87;;
55134;SDS011;41031;44.750;11.308;2022-08-07T14:09:54;3.83;;;1.90;;
55134;SDS011;41031;44.750;11.308;2022-08-07T14:12:51;2.00;;;1.90;;
55134;SDS011;41031;44.750;11.308;2022-08-07T14:18:18;2.03;;;1.90;;
55134;SDS011;41031;44.750;11.308;2022-08-07T14:21:12;1.97;;;1.70;;
55134;SDS011;41031;44.750;11.308;2022-08-07T14:24:05;3.47;;;1.77;;
55134;SDS011;41031;44.750;11.308;2022-08-07T14:26:43;2.00;;;1.80;;
55134;SDS011;41031;44.750;11.308;2022-08-07T14:29:22;2.00;;;1.90;;
55134;SDS011;41031;44.750;11.308;2022-08-07T14:32:13;1.83;;;1.73;;
55134;SDS011;41031;44.750;11.308;2022-08-07T14:34:45;1.90;;;1.80;;
55134;SDS011;41031;44.750;11.308;2022-08-07T14:37:15;4.53;;;1.60;;
55134;SDS011;41031;44.750;11.308;2022-08-07T14:39:44;1.80;;;1.70;;
55134;SDS011;41031;44.750;11.308;2022-08-07T14:42:37;3.80;;;2.93;;
55134;SDS011;41031;44.750;11.308;2022-08-07T14:45:26;2.23;;;2.03;;
55134;SDS011;41031;44.750;11.308;2022-08-07T14:48:15;1.60;;;1.50;;
55134;SDS011;41031;44.750;11.308;2022-08-07T14:50:52;1.80;;;1.70;;
55134;SDS011;41031;44.750;11.308;2022-08-07T14:53:22;1.80;;;1.70;;
55134;SDS011;41031;44.750;11.308;2022-08-07T14:56:12;2.00;;;1.90;;
55134;SDS011;41031;44.750;11.308;2022-08-07T14:59:05;3.70;;;2.50;;
55134;SDS011;41031;44.750;11.308;2022-08-07T15:01:55;1.97;;;1.87;;
55134;SDS011;41031;44.750;11.308;2022-08-07T15:04:28;1.77;;;1.67;;
55134;SDS011;41031;44.750;11.308;2022-08-07T15:06:58;2.07;;;1.90;;
55134;SDS011;41031;44.750;11.308;2022-08-07T15:09:27;1.77;;;1.63;;
55134;SDS011;41031;44.750;11.308;2022-08-07T15:12:18;1.60;;;1.50;;
55134;SDS011;41031;44.750;11.308;2022-08-07T15:14:57;1.80;;;1.70;;
55134;SDS011;41031;44.750;11.308;2022-08-07T15:17:34;1.77;;;1.67;;
55134;SDS011;41031;44.750;11.308;2022-08-07T15:20:29;1.90;;;1.80;;
55134;SDS011;41031;44.750;11.308;2022-08-07T15:23:24;1.80;;;1.70;;
55134;SDS011;41031;44.750;11.308;2022-08-07T15:26:14;1.70;;;1.60;;
55134;SDS011;41031;44.750;11.308;2022-08-07T15:28:46;1.80;;;1.70;;
55134;SDS011;41031;44.750;11.308;2022-08-07T15:31:39;1.97;;;1.83;;
55134;SDS011;41031;44.750;11.308;2022-08-07T15:34:37;2.03;;;1.93;;
55134;SDS011;41031;44.750;11.308;2022-08-07T15:37:16;1.80;;;1.70;;
55134;SDS011;41031;44.750;11.308;2022-08-07T15:39:54;3.13;;;1.70;;
55134;SDS011;41031;44.750;11.308;2022-08-07T15:43:11;1.80;;;1.70;;
55134;SDS011;41031;44.750;11.308;2022-08-07T15:48:17;2.20;;;2.10;;
55134;SDS011;41031;44.750;11.308;2022-08-07T15:50:58;2.07;;;1.97;;
55134;SDS011;41031;44.750;11.308;2022-08-07T15:53:40;2.40;;;2.20;;
55134;SDS011;41031;44.750;11.308;2022-08-07T15:56:20;2.10;;;2.00;;
55134;SDS011;41031;44.750;11.308;2022-08-07T16:01:32;1.80;;;1.70;;
55134;SDS011;41031;44.750;11.308;2022-08-07T16:04:09;2.97;;;1.80;;
55134;SDS011;41031;44.750;11.308;2022-08-07T16:09:40;2.53;;;2.10;;
55134;SDS011;41031;44.750;11.308;2022-08-07T16:12:32;2.87;;;2.00;;
55134;SDS011;41031;44.750;11.308;2022-08-07T16:21:33;1.80;;;1.70;;
55134;SDS011;41031;44.750;11.308;2022-08-07T16:24:39;2.33;;;2.13;;
55134;SDS011;41031;44.750;11.308;2022-08-07T16:27:32;1.93;;;1.70;;
55134;SDS011;41031;44.750;11.308;2022-08-07T16:30:09;2.20;;;2.00;;
55134;SDS011;41031;44.750;11.308;2022-08-07T16:33:07;1.90;;;1.80;;
55134;SDS011;41031;44.750;11.308;2022-08-07T16:51:28;1.90;;;1.80;;
55134;SDS011;41031;44.750;11.308;2022-08-07T16:54:31;2.10;;;2.00;;
55134;SDS011;41031;44.750;11.308;2022-08-07T16:57:30;2.07;;;1.97;;
55134;SDS011;41031;44.750;11.308;2022-08-07T17:00:19;2.53;;;2.17;;
55134;SDS011;41031;44.750;11.308;2022-08-07T17:11:36;2.33;;;2.13;;
55134;SDS011;41031;44.750;11.308;2022-08-07T17:14:36;2.17;;;2.07;;
55134;SDS011;41031;44.750;11.308;2022-08-07T17:17:13;2.20;;;1.67;;
55134;SDS011;41031;44.750;11.308;2022-08-07T17:27:02;3.60;;;2.27;;
55134;SDS011;41031;44.750;11.308;2022-08-07T17:35:19;3.73;;;2.40;;
55134;SDS011;41031;44.750;11.308;2022-08-07T17:38:16;2.63;;;2.43;;
55134;SDS011;41031;44.750;11.308;2022-08-07T17:42:00;2.90;;;2.20;;
55134;SDS011;41031;44.750;11.308;2022-08-07T17:44:31;2.83;;;2.63;;
55134;SDS011;41031;44.750;11.308;2022-08-07T17:52:45;2.03;;;1.93;;
55134;SDS011;41031;44.750;11.308;2022-08-07T17:55:23;2.03;;;1.93;;
55134;SDS011;41031;44.750;11.308;2022-08-07T17:59:19;2.67;;;2.10;;
55134;SDS011;41031;44.750;11.308;2022-08-07T18:07:23;2.47;;;2.27;;
55134;SDS011;41031;44.750;11.308;2022-08-07T18:19:24;3.53;;;2.70;;
55134;SDS011;41031;44.750;11.308;2022-08-07T18:25:21;3.90;;;2.50;;
55134;SDS011;41031;44.750;11.308;2022-08-07T18:30:58;3.57;;;3.13;;
55134;SDS011;41031;44.750;11.308;2022-08-07T18:39:29;4.10;;;3.80;;
55134;SDS011;41031;44.750;11.308;2022-08-07T18:42:48;3.80;;;3.40;;
55134;SDS011;41031;44.750;11.308;2022-08-07T18:45:44;5.00;;;4.50;;
55134;SDS011;41031;44.750;11.308;2022-08-07T18:49:03;4.90;;;4.40;;
55134;SDS011;41031;44.750;11.308;2022-08-07T19:01:13;6.40;;;3.83;;
55134;SDS011;41031;44.750;11.308;2022-08-07T19:07:33;4.43;;;4.00;;
55134;SDS011;41031;44.750;11.308;2022-08-07T19:10:33;3.90;;;3.60;;
55134;SDS011;41031;44.750;11.308;2022-08-07T19:19:34;4.37;;;3.77;;
55134;SDS011;41031;44.750;11.308;2022-08-07T19:22:22;4.97;;;3.40;;
55134;SDS011;41031;44.750;11.308;2022-08-07T19:24:57;6.60;;;3.87;;
55134;SDS011;41031;44.750;11.308;2022-08-07T19:27:33;4.37;;;3.70;;
55134;SDS011;41031;44.750;11.308;2022-08-07T19:30:24;5.33;;;4.43;;
55134;SDS011;41031;44.750;11.308;2022-08-07T19:33:16;4.10;;;3.80;;
55134;SDS011;41031;44.750;11.308;2022-08-07T19:36:00;3.50;;;3.20;;
55134;SDS011;41031;44.750;11.308;2022-08-07T19:38:29;4.40;;;4.00;;
55134;SDS011;41031;44.750;11.308;2022-08-07T19:41:20;4.10;;;3.70;;
55134;SDS011;41031;44.750;11.308;2022-08-07T19:44:10;4.17;;;3.77;;
55134;SDS011;41031;44.750;11.308;2022-08-07T19:46:47;4.37;;;3.97;;
55134;SDS011;41031;44.750;11.308;2022-08-07T19:49:22;4.17;;;3.87;;
55134;SDS011;41031;44.750;11.308;2022-08-07T19:52:11;4.23;;;3.83;;
55134;SDS011;41031;44.750;11.308;2022-08-07T19:54:44;4.80;;;4.30;;
55134;SDS011;41031;44.750;11.308;2022-08-07T19:57:26;5.03;;;4.40;;
55134;SDS011;41031;44.750;11.308;2022-08-07T20:00:23;4.50;;;4.10;;
55134;SDS011;41031;44.750;11.308;2022-08-07T20:02:58;5.00;;;4.50;;
55134;SDS011;41031;44.750;11.308;2022-08-07T20:05:56;5.10;;;3.93;;
55134;SDS011;41031;44.750;11.308;2022-08-07T20:08:29;4.17;;;3.87;;
55134;SDS011;41031;44.750;11.308;2022-08-07T20:11:02;4.53;;;4.10;;
55134;SDS011;41031;44.750;11.308;2022-08-07T20:13:51;4.50;;;4.20;;
55134;SDS011;41031;44.750;11.308;2022-08-07T20:16:24;5.80;;;4.40;;
55134;SDS011;41031;44.750;11.308;2022-08-07T20:19:03;5.00;;;4.60;;
55134;SDS011;41031;44.750;11.308;2022-08-07T20:21:36;4.70;;;4.30;;
55134;SDS011;41031;44.750;11.308;2022-08-07T20:24:15;6.00;;;4.63;;
55134;SDS011;41031;44.750;11.308;2022-08-07T20:26:47;5.90;;;5.40;;
55134;SDS011;41031;44.750;11.308;2022-08-07T20:29:23;6.07;;;5.50;;
55134;SDS011;41031;44.750;11.308;2022-08-07T20:32:17;5.90;;;5.40;;
55134;SDS011;41031;44.750;11.308;2022-08-07T20:34:53;6.80;;;6.17;;
55134;SDS011;41031;44.750;11.308;2022-08-07T20:37:35;5.70;;;5.20;;
55134;SDS011;41031;44.750;11.308;2022-08-07T20:40:24;5.43;;;4.93;;
55134;SDS011;41031;44.750;11.308;2022-08-07T20:43:01;6.17;;;5.63;;
55134;SDS011;41031;44.750;11.308;2022-08-07T20:45:43;5.83;;;5.33;;
55134;SDS011;41031;44.750;11.308;2022-08-07T20:48:35;5.87;;;5.30;;
55134;SDS011;41031;44.750;11.308;2022-08-07T20:51:07;6.23;;;5.73;;
55134;SDS011;41031;44.750;11.308;2022-08-07T20:53:36;5.50;;;5.00;;
55134;SDS011;41031;44.750;11.308;2022-08-07T20:56:26;5.73;;;5.23;;
55134;SDS011;41031;44.750;11.308;2022-08-07T20:59:02;5.20;;;4.80;;
55134;SDS011;41031;44.750;11.308;2022-08-07T21:01:52;5.53;;;5.03;;